sensor_id;sensor_type;location;lat;lon;timestamp;pressure;altitude;pressure_sealevel;temperature;humidity
21100;BME280;10708;50.824;4.408;2023-05-01T00:01:40;100706.94;;;13.39;100.00
21100;BME280;10708;50.824;4.408;2023-05-01T00:07:02;100713.94;;;13.40;100.00
21100;BME280;10708;50.824;4.408;2023-05-01T00:12:17;100700.72;;;13.40;100.00
21100;BME280;10708;50.824;4.408;2023-05-01T00:17:25;100692.72;;;13.41;100.00
21100;BME280;10708;50.824;4.408;2023-05-01T00:22:32;100683.91;;;13.41;100.00
21100;BME280;10708;50.824;4.408;2023-05-01T00:27:40;100673.34;;;13.41;100.00
21100;BME280;10708;50.824;4.408;2023-05-01T00:33:27;100667.25;;;13.39;100.00
21100;BME280;10708;50.824;4.408;2023-05-01T00:38:35;100668.16;;;13.38;100.00
21100;BME280;10708;50.824;4.408;2023-05-01T00:43:56;100659.41;;;13.37;100.00
21100;BME280;10708;50.824;4.408;2023-05-01T00:49:16;100647.09;;;13.36;100.00
21100;BME280;10708;50.824;4.408;2023-05-01T00:54:19;100643.66;;;13.34;100.00
21100;BME280;10708;50.824;4.408;2023-05-01T00:59:48;100635.78;;;13.33;100.00
21100;BME280;10708;50.824;4.408;2023-05-01T01:05:09;100638.50;;;13.31;100.00
21100;BME280;10708;50.824;4.408;2023-05-01T01:10:17;100632.59;;;13.26;100.00
21100;BME280;10708;50.824;4.408;2023-05-01T01:15:37;100627.38;;;13.24;100.00
21100;BME280;10708;50.824;4.408;2023-05-01T01:20:53;100610.69;;;13.22;100.00
21100;BME280;10708;50.824;4.408;2023-05-01T01:26:11;100607.19;;;13.22;100.00
21100;BME280;10708;50.824;4.408;2023-05-01T01:31:20;100605.41;;;13.22;100.00
21100;BME280;10708;50.824;4.408;2023-05-01T01:36:45;100595.69;;;13.23;100.00
21100;BME280;10708;50.824;4.408;2023-05-01T01:41:53;100587.97;;;13.18;100.00
21100;BME280;10708;50.824;4.408;2023-05-01T01:46:59;100578.22;;;13.19;100.00
21100;BME280;10708;50.824;4.408;2023-05-01T01:52:07;100587.88;;;13.20;100.00
21100;BME280;10708;50.824;4.408;2023-05-01T01:57:15;100578.22;;;13.19;100.00
21100;BME280;10708;50.824;4.408;2023-05-01T02:02:21;100577.38;;;13.18;100.00
21100;BME280;10708;50.824;4.408;2023-05-01T02:12:56;100567.81;;;13.16;100.00
21100;BME280;10708;50.824;4.408;2023-05-01T02:18:04;100567.81;;;13.16;100.00
21100;BME280;10708;50.824;4.408;2023-05-01T02:23:10;100567.81;;;13.16;100.00
21100;BME280;10708;50.824;4.408;2023-05-01T02:28:21;100552.91;;;13.13;100.00
21100;BME280;10708;50.824;4.408;2023-05-01T02:33:55;100545.03;;;13.12;100.00
21100;BME280;10708;50.824;4.408;2023-05-01T02:39:27;100544.19;;;13.11;100.00
21100;BME280;10708;50.824;4.408;2023-05-01T02:44:39;100541.53;;;13.11;100.00
21100;BME280;10708;50.824;4.408;2023-05-01T02:50:18;100535.53;;;13.08;100.00
21100;BME280;10708;50.824;4.408;2023-05-01T02:55:55;100523.28;;;13.07;100.00
21100;BME280;10708;50.824;4.408;2023-05-01T03:01:10;100520.63;;;13.07;100.00
21100;BME280;10708;50.824;4.408;2023-05-01T03:06:14;100507.31;;;13.08;100.00
21100;BME280;10708;50.824;4.408;2023-05-01T03:11:31;100505.63;;;13.07;100.00
21100;BME280;10708;50.824;4.408;2023-05-01T03:16:41;100496.09;;;13.03;100.00
21100;BME280;10708;50.824;4.408;2023-05-01T03:21:46;100503.25;;;13.01;100.00
21100;BME280;10708;50.824;4.408;2023-05-01T03:27:11;100505.19;;;12.98;100.00
21100;BME280;10708;50.824;4.408;2023-05-01T03:32:17;100503.59;;;12.93;100.00
21100;BME280;10708;50.824;4.408;2023-05-01T03:37:27;100503.81;;;12.89;100.00
21100;BME280;10708;50.824;4.408;2023-05-01T03:42:54;100503.13;;;12.85;100.00
21100;BME280;10708;50.824;4.408;2023-05-01T03:48:01;100495.31;;;12.82;100.00
21100;BME280;10708;50.824;4.408;2023-05-01T03:53:25;100493.72;;;12.78;100.00
21100;BME280;10708;50.824;4.408;2023-05-01T03:58:44;100491.50;;;12.69;100.00
21100;BME280;10708;50.824;4.408;2023-05-01T04:03:51;100493.38;;;12.67;100.00
21100;BME280;10708;50.824;4.408;2023-05-01T04:09:02;100486.28;;;12.68;100.00
21100;BME280;10708;50.824;4.408;2023-05-01T04:14:12;100486.44;;;12.65;100.00
21100;BME280;10708;50.824;4.408;2023-05-01T04:19:23;100488.50;;;12.58;100.00
21100;BME280;10708;50.824;4.408;2023-05-01T04:24:32;100482.28;;;12.59;100.00
21100;BME280;10708;50.824;4.408;2023-05-01T04:29:45;100485.78;;;12.60;100.00
21100;BME280;10708;50.824;4.408;2023-05-01T04:34:52;100486.56;;;12.62;100.00
21100;BME280;10708;50.824;4.408;2023-05-01T04:40:01;100479.50;;;12.62;100.00
21100;BME280;10708;50.824;4.408;2023-05-01T04:45:10;100482.94;;;12.64;100.00
21100;BME280;10708;50.824;4.408;2023-05-01T04:50:15;100482.03;;;12.65;100.00
21100;BME280;10708;50.824;4.408;2023-05-01T04:55:54;100488.09;;;12.67;100.00
21100;BME280;10708;50.824;4.408;2023-05-01T05:01:01;100488.00;;;12.69;100.00
21100;BME280;10708;50.824;4.408;2023-05-01T05:06:09;100490.59;;;12.70;100.00
21100;BME280;10708;50.824;4.408;2023-05-01T05:11:19;100487.75;;;12.75;100.00
21100;BME280;10708;50.824;4.408;2023-05-01T05:16:28;100494.59;;;12.79;100.00
21100;BME280;10708;50.824;4.408;2023-05-01T05:21:31;100503.13;;;12.85;100.00
21100;BME280;10708;50.824;4.408;2023-05-01T05:26:36;100505.41;;;12.93;100.00
21100;BME280;10708;50.824;4.408;2023-05-01T05:31:47;100502.56;;;12.98;100.00
21100;BME280;10708;50.824;4.408;2023-05-01T05:36:57;100514.63;;;13.03;100.00
21100;BME280;10708;50.824;4.408;2023-05-01T05:42:16;100507.09;;;13.13;100.00
21100;BME280;10708;50.824;4.408;2023-05-01T05:47:21;100505.38;;;13.12;100.00
21100;BME280;10708;50.824;4.408;2023-05-01T05:52:25;100509.66;;;13.16;100.00
21100;BME280;10708;50.824;4.408;2023-05-01T05:57:35;100508.03;;;13.12;100.00
21100;BME280;10708;50.824;4.408;2023-05-01T06:02:42;100505.47;;;13.10;100.00
21100;BME280;10708;50.824;4.408;2023-05-01T06:07:49;100505.22;;;13.16;100.00
21100;BME280;10708;50.824;4.408;2023-05-01T06:13:01;100501.22;;;13.26;100.00
21100;BME280;10708;50.824;4.408;2023-05-01T06:18:08;100503.25;;;13.39;100.00
21100;BME280;10708;50.824;4.408;2023-05-01T06:23:19;100502.38;;;13.57;100.00
21100;BME280;10708;50.824;4.408;2023-05-01T06:28:39;100504.47;;;13.67;100.00
21100;BME280;10708;50.824;4.408;2023-05-01T06:33:48;100506.38;;;13.83;100.00
21100;BME280;10708;50.824;4.408;2023-05-01T06:38:55;100503.50;;;14.04;100.00
21100;BME280;10708;50.824;4.408;2023-05-01T06:44:05;100504.38;;;14.38;100.00
21100;BME280;10708;50.824;4.408;2023-05-01T06:49:09;100507.50;;;14.63;100.00
21100;BME280;10708;50.824;4.408;2023-05-01T06:54:12;100514.19;;;14.70;100.00
21100;BME280;10708;50.824;4.408;2023-05-01T06:59:14;100514.06;;;14.56;100.00
21100;BME280;10708;50.824;4.408;2023-05-01T07:04:19;100511.94;;;14.63;100.00
21100;BME280;10708;50.824;4.408;2023-05-01T07:09:22;100516.03;;;14.53;100.00
21100;BME280;10708;50.824;4.408;2023-05-01T07:14:24;100520.38;;;14.54;100.00
21100;BME280;10708;50.824;4.408;2023-05-01T07:24:38;100519.88;;;14.47;100.00
21100;BME280;10708;50.824;4.408;2023-05-01T07:29:41;100513.91;;;14.59;100.00
21100;BME280;10708;50.824;4.408;2023-05-01T07:45:12;100507.81;;;15.37;100.00
21100;BME280;10708;50.824;4.408;2023-05-01T07:55:31;100513.09;;;15.55;100.00
21100;BME280;10708;50.824;4.408;2023-05-01T08:00:40;100519.56;;;15.65;100.00
21100;BME280;10708;50.824;4.408;2023-05-01T08:05:44;100523.34;;;15.61;100.00
21100;BME280;10708;50.824;4.408;2023-05-01T08:10:47;100520.97;;;15.56;100.00
21100;BME280;10708;50.824;4.408;2023-05-01T08:15:51;100525.53;;;15.84;100.00
21100;BME280;10708;50.824;4.408;2023-05-01T08:20:54;100535.16;;;15.71;100.00
21100;BME280;10708;50.824;4.408;2023-05-01T08:25:56;100529.09;;;15.99;100.00
21100;BME280;10708;50.824;4.408;2023-05-01T08:31:00;100535.53;;;16.24;100.00
21100;BME280;10708;50.824;4.408;2023-05-01T08:36:03;100523.50;;;16.33;100.00
21100;BME280;10708;50.824;4.408;2023-05-01T08:41:06;100532.03;;;16.38;100.00
21100;BME280;10708;50.824;4.408;2023-05-01T08:46:12;100537.13;;;16.71;100.00
21100;BME280;10708;50.824;4.408;2023-05-01T08:51:20;100539.31;;;17.21;100.00
21100;BME280;10708;50.824;4.408;2023-05-01T08:56:24;100530.00;;;17.55;100.00
21100;BME280;10708;50.824;4.408;2023-05-01T09:01:32;100536.63;;;18.16;100.00
21100;BME280;10708;50.824;4.408;2023-05-01T09:06:36;100546.84;;;18.10;100.00
21100;BME280;10708;50.824;4.408;2023-05-01T09:11:39;100538.13;;;18.20;100.00
21100;BME280;10708;50.824;4.408;2023-05-01T09:16:50;100540.28;;;17.47;100.00
21100;BME280;10708;50.824;4.408;2023-05-01T09:21:53;100540.81;;;17.25;100.00
21100;BME280;10708;50.824;4.408;2023-05-01T09:26:56;100553.47;;;17.22;100.00
21100;BME280;10708;50.824;4.408;2023-05-01T09:32:11;100549.56;;;16.99;100.00
21100;BME280;10708;50.824;4.408;2023-05-01T09:37:25;100555.09;;;17.10;100.00
21100;BME280;10708;50.824;4.408;2023-05-01T09:42:29;100557.28;;;16.75;100.00
21100;BME280;10708;50.824;4.408;2023-05-01T09:47:35;100566.38;;;16.71;100.00
21100;BME280;10708;50.824;4.408;2023-05-01T09:52:38;100565.28;;;16.45;100.00
21100;BME280;10708;50.824;4.408;2023-05-01T09:57:41;100567.66;;;16.50;100.00
21100;BME280;10708;50.824;4.408;2023-05-01T10:02:46;100567.19;;;16.57;100.00
21100;BME280;10708;50.824;4.408;2023-05-01T10:07:56;100569.75;;;16.59;100.00
21100;BME280;10708;50.824;4.408;2023-05-01T10:23:48;100566.44;;;17.96;100.00
21100;BME280;10708;50.824;4.408;2023-05-01T10:28:54;100567.50;;;18.46;100.00
21100;BME280;10708;50.824;4.408;2023-05-01T10:34:05;100563.34;;;18.54;100.00
21100;BME280;10708;50.824;4.408;2023-05-01T10:55:51;100577.38;;;18.31;100.00
21100;BME280;10708;50.824;4.408;2023-05-01T11:06:35;100580.81;;;17.93;100.00
21100;BME280;10708;50.824;4.408;2023-05-01T11:11:57;100572.91;;;18.31;100.00
21100;BME280;10708;50.824;4.408;2023-05-01T11:17:06;100569.16;;;18.21;100.00
21100;BME280;10708;50.824;4.408;2023-05-01T11:22:11;100572.97;;;18.17;100.00
21100;BME280;10708;50.824;4.408;2023-05-01T11:27:16;100568.69;;;18.54;100.00
21100;BME280;10708;50.824;4.408;2023-05-01T11:32:23;100574.56;;;18.59;100.00
21100;BME280;10708;50.824;4.408;2023-05-01T11:37:40;100574.47;;;18.61;100.00
21100;BME280;10708;50.824;4.408;2023-05-01T11:42:44;100566.16;;;18.13;100.00
21100;BME280;10708;50.824;4.408;2023-05-01T11:47:48;100572.63;;;17.55;100.00
21100;BME280;10708;50.824;4.408;2023-05-01T11:52:51;100580.81;;;17.38;100.00
21100;BME280;10708;50.824;4.408;2023-05-01T11:57:55;100572.44;;;17.44;100.00
21100;BME280;10708;50.824;4.408;2023-05-01T12:02:59;100571.69;;;17.83;100.00
21100;BME280;10708;50.824;4.408;2023-05-01T12:08:09;100568.72;;;18.27;100.00
21100;BME280;10708;50.824;4.408;2023-05-01T12:13:14;100566.00;;;18.54;100.00
21100;BME280;10708;50.824;4.408;2023-05-01T12:18:17;100562.47;;;18.41;100.00
21100;BME280;10708;50.824;4.408;2023-05-01T12:23:32;100572.88;;;18.58;100.00
21100;BME280;10708;50.824;4.408;2023-05-01T12:28:36;100562.75;;;18.76;100.00
21100;BME280;10708;50.824;4.408;2023-05-01T12:33:38;100572.88;;;18.84;100.00
21100;BME280;10708;50.824;4.408;2023-05-01T12:38:41;100572.34;;;18.78;100.00
21100;BME280;10708;50.824;4.408;2023-05-01T12:43:56;100562.53;;;18.92;100.00
21100;BME280;10708;50.824;4.408;2023-05-01T12:48:59;100574.91;;;18.80;100.00
21100;BME280;10708;50.824;4.408;2023-05-01T12:54:01;100565.56;;;18.35;100.00
21100;BME280;10708;50.824;4.408;2023-05-01T12:59:05;100567.38;;;18.34;100.00
21100;BME280;10708;50.824;4.408;2023-05-01T13:04:08;100564.09;;;18.04;100.00
21100;BME280;10708;50.824;4.408;2023-05-01T13:09:10;100577.09;;;17.96;100.00
21100;BME280;10708;50.824;4.408;2023-05-01T13:14:14;100564.56;;;17.84;100.00
21100;BME280;10708;50.824;4.408;2023-05-01T13:19:24;100571.34;;;18.02;100.00
21100;BME280;10708;50.824;4.408;2023-05-01T13:24:35;100573.06;;;17.62;100.00
21100;BME280;10708;50.824;4.408;2023-05-01T13:29:40;100586.13;;;17.52;100.00
21100;BME280;10708;50.824;4.408;2023-05-01T13:34:42;100587.84;;;17.53;100.00
21100;BME280;10708;50.824;4.408;2023-05-01T13:39:46;100582.28;;;17.70;100.00
21100;BME280;10708;50.824;4.408;2023-05-01T13:44:51;100580.47;;;17.85;100.00
21100;BME280;10708;50.824;4.408;2023-05-01T13:49:54;100585.66;;;17.87;100.00
21100;BME280;10708;50.824;4.408;2023-05-01T13:54:57;100587.63;;;17.70;100.00
21100;BME280;10708;50.824;4.408;2023-05-01T14:00:01;100593.53;;;17.76;100.00
21100;BME280;10708;50.824;4.408;2023-05-01T14:05:06;100588.91;;;17.78;100.00
21100;BME280;10708;50.824;4.408;2023-05-01T14:10:09;100589.06;;;17.89;100.00
21100;BME280;10708;50.824;4.408;2023-05-01T14:15:14;100586.56;;;17.73;100.00
21100;BME280;10708;50.824;4.408;2023-05-01T14:20:16;100589.91;;;17.77;100.00
21100;BME280;10708;50.824;4.408;2023-05-01T14:25:23;100584.78;;;17.74;100.00
21100;BME280;10708;50.824;4.408;2023-05-01T14:30:29;100588.19;;;17.76;100.00
21100;BME280;10708;50.824;4.408;2023-05-01T14:35:33;100579.28;;;17.89;100.00
21100;BME280;10708;50.824;4.408;2023-05-01T14:40:39;100590.09;;;17.74;100.00
21100;BME280;10708;50.824;4.408;2023-05-01T14:45:43;100575.34;;;17.68;100.00
21100;BME280;10708;50.824;4.408;2023-05-01T14:50:46;100581.81;;;18.05;100.00
21100;BME280;10708;50.824;4.408;2023-05-01T14:55:49;100582.81;;;18.29;100.00
21100;BME280;10708;50.824;4.408;2023-05-01T15:00:53;100582.63;;;18.32;100.00
21100;BME280;10708;50.824;4.408;2023-05-01T15:05:57;100591.81;;;18.54;100.00
21100;BME280;10708;50.824;4.408;2023-05-01T15:10:59;100596.84;;;18.46;100.00
21100;BME280;10708;50.824;4.408;2023-05-01T15:16:04;100589.47;;;18.36;100.00
21100;BME280;10708;50.824;4.408;2023-05-01T15:21:07;100598.56;;;18.20;100.00
21100;BME280;10708;50.824;4.408;2023-05-01T15:26:10;100600.09;;;17.97;100.00
21100;BME280;10708;50.824;4.408;2023-05-01T15:31:14;100610.41;;;17.89;100.00
21100;BME280;10708;50.824;4.408;2023-05-01T15:36:19;100621.69;;;17.65;100.00
21100;BME280;10708;50.824;4.408;2023-05-01T15:41:21;100616.25;;;17.67;100.00
21100;BME280;10708;50.824;4.408;2023-05-01T15:46:25;100623.00;;;17.58;100.00
21100;BME280;10708;50.824;4.408;2023-05-01T15:51:29;100617.63;;;17.31;100.00
21100;BME280;10708;50.824;4.408;2023-05-01T15:56:33;100624.56;;;17.20;100.00
21100;BME280;10708;50.824;4.408;2023-05-01T16:01:37;100635.56;;;17.28;100.00
21100;BME280;10708;50.824;4.408;2023-05-01T16:06:40;100631.22;;;17.13;100.00
21100;BME280;10708;50.824;4.408;2023-05-01T16:11:42;100643.16;;;16.91;100.00
21100;BME280;10708;50.824;4.408;2023-05-01T16:16:46;100650.13;;;16.94;100.00
21100;BME280;10708;50.824;4.408;2023-05-01T16:21:49;100649.59;;;16.87;100.00
21100;BME280;10708;50.824;4.408;2023-05-01T16:37:34;100670.88;;;16.87;100.00
21100;BME280;10708;50.824;4.408;2023-05-01T16:42:47;100666.03;;;16.80;100.00
21100;BME280;10708;50.824;4.408;2023-05-01T17:04:16;100684.03;;;16.45;100.00
21100;BME280;10708;50.824;4.408;2023-05-01T17:09:19;100690.03;;;16.48;100.00
21100;BME280;10708;50.824;4.408;2023-05-01T17:14:21;100694.28;;;16.37;100.00
21100;BME280;10708;50.824;4.408;2023-05-01T17:19:25;100690.16;;;16.31;100.00
21100;BME280;10708;50.824;4.408;2023-05-01T17:24:31;100708.91;;;16.28;100.00
21100;BME280;10708;50.824;4.408;2023-05-01T17:29:33;100708.84;;;16.30;100.00
21100;BME280;10708;50.824;4.408;2023-05-01T17:34:37;100715.69;;;16.34;100.00
21100;BME280;10708;50.824;4.408;2023-05-01T17:39:43;100714.16;;;16.30;100.00
21100;BME280;10708;50.824;4.408;2023-05-01T17:44:45;100722.19;;;16.28;100.00
21100;BME280;10708;50.824;4.408;2023-05-01T17:49:52;100728.47;;;16.27;100.00
21100;BME280;10708;50.824;4.408;2023-05-01T17:54:56;100736.09;;;16.02;100.00
21100;BME280;10708;50.824;4.408;2023-05-01T17:59:58;100739.84;;;15.82;100.00
21100;BME280;10708;50.824;4.408;2023-05-01T18:10:08;100759.31;;;15.82;100.00
21100;BME280;10708;50.824;4.408;2023-05-01T18:15:12;100766.41;;;15.66;100.00
21100;BME280;10708;50.824;4.408;2023-05-01T18:20:14;100773.81;;;15.60;100.00
21100;BME280;10708;50.824;4.408;2023-05-01T18:25:18;100768.72;;;15.38;100.00
21100;BME280;10708;50.824;4.408;2023-05-01T18:30:21;100769.00;;;15.33;100.00
21100;BME280;10708;50.824;4.408;2023-05-01T18:35:23;100786.47;;;15.20;100.00
21100;BME280;10708;50.824;4.408;2023-05-01T18:40:27;100784.63;;;15.05;100.00
21100;BME280;10708;50.824;4.408;2023-05-01T18:45:31;100786.81;;;14.97;100.00
21100;BME280;10708;50.824;4.408;2023-05-01T18:50:33;100789.19;;;14.84;100.00
21100;BME280;10708;50.824;4.408;2023-05-01T18:55:37;100809.94;;;14.76;100.00
21100;BME280;10708;50.824;4.408;2023-05-01T19:00:39;100809.72;;;14.62;100.00
21100;BME280;10708;50.824;4.408;2023-05-01T19:05:42;100820.78;;;14.53;100.00
21100;BME280;10708;50.824;4.408;2023-05-01T19:10:46;100814.28;;;14.41;100.00
21100;BME280;10708;50.824;4.408;2023-05-01T19:15:49;100820.91;;;14.31;100.00
21100;BME280;10708;50.824;4.408;2023-05-01T19:20:51;100827.50;;;14.22;100.00
21100;BME280;10708;50.824;4.408;2023-05-01T19:25:55;100836.66;;;14.15;100.00
21100;BME280;10708;50.824;4.408;2023-05-01T19:30:58;100846.75;;;14.07;100.00
21100;BME280;10708;50.824;4.408;2023-05-01T19:36:00;100849.03;;;13.96;100.00
21100;BME280;10708;50.824;4.408;2023-05-01T19:41:05;100869.75;;;13.86;100.00
21100;BME280;10708;50.824;4.408;2023-05-01T19:46:11;100882.53;;;13.77;100.00
21100;BME280;10708;50.824;4.408;2023-05-01T19:56:34;100900.28;;;13.54;100.00
21100;BME280;10708;50.824;4.408;2023-05-01T20:01:39;100902.44;;;13.45;100.00
21100;BME280;10708;50.824;4.408;2023-05-01T20:06:42;100909.75;;;13.38;100.00
21100;BME280;10708;50.824;4.408;2023-05-01T20:11:45;100920.00;;;13.25;100.00
21100;BME280;10708;50.824;4.408;2023-05-01T20:16:54;100928.38;;;13.15;100.00
21100;BME280;10708;50.824;4.408;2023-05-01T20:21:56;100927.84;;;13.05;100.00
21100;BME280;10708;50.824;4.408;2023-05-01T20:27:02;100941.41;;;12.98;100.00
21100;BME280;10708;50.824;4.408;2023-05-01T20:32:09;100941.66;;;12.90;100.00
21100;BME280;10708;50.824;4.408;2023-05-01T20:37:12;100944.63;;;12.82;100.00
21100;BME280;10708;50.824;4.408;2023-05-01T20:47:26;100948.84;;;12.65;100.00
21100;BME280;10708;50.824;4.408;2023-05-01T20:58:00;100954.69;;;12.49;100.00
21100;BME280;10708;50.824;4.408;2023-05-01T21:08:15;100955.38;;;12.31;100.00
21100;BME280;10708;50.824;4.408;2023-05-01T21:13:17;100969.72;;;12.24;100.00
21100;BME280;10708;50.824;4.408;2023-05-01T21:18:20;100976.88;;;12.20;100.00
21100;BME280;10708;50.824;4.408;2023-05-01T21:23:25;100987.69;;;12.14;100.00
21100;BME280;10708;50.824;4.408;2023-05-01T21:28:27;100983.47;;;12.09;100.00
21100;BME280;10708;50.824;4.408;2023-05-01T21:33:31;100984.69;;;11.99;100.00
21100;BME280;10708;50.824;4.408;2023-05-01T21:38:40;100987.47;;;11.96;100.00
21100;BME280;10708;50.824;4.408;2023-05-01T22:00:32;100999.03;;;11.65;100.00
21100;BME280;10708;50.824;4.408;2023-05-01T22:10:49;101013.44;;;11.55;100.00
21100;BME280;10708;50.824;4.408;2023-05-01T22:21:35;101026.72;;;11.52;100.00
21100;BME280;10708;50.824;4.408;2023-05-01T22:26:43;101029.44;;;11.49;100.00
21100;BME280;10708;50.824;4.408;2023-05-01T22:31:56;101024.38;;;11.43;100.00
21100;BME280;10708;50.824;4.408;2023-05-01T22:37:04;101027.91;;;11.42;100.00
21100;BME280;10708;50.824;4.408;2023-05-01T22:47:19;101041.41;;;11.33;100.00
21100;BME280;10708;50.824;4.408;2023-05-01T23:03:22;101066.44;;;11.18;100.00
21100;BME280;10708;50.824;4.408;2023-05-01T23:08:27;101074.34;;;11.18;100.00
21100;BME280;10708;50.824;4.408;2023-05-01T23:19:17;101071.91;;;11.12;100.00
21100;BME280;10708;50.824;4.408;2023-05-01T23:29:32;101073.91;;;11.04;100.00
21100;BME280;10708;50.824;4.408;2023-05-01T23:40:11;101088.28;;;10.94;100.00
21100;BME280;10708;50.824;4.408;2023-05-01T23:45:18;101097.09;;;10.93;100.00
21100;BME280;10708;50.824;4.408;2023-05-01T23:50:24;101099.59;;;10.97;100.00
